sensor_id;sensor_type;location;lat;lon;timestamp;P1;durP1;ratioP1;P2;durP2;ratioP2
3523;SDS011;1776;53.330;11.498;2023-11-19T00:01:43;12.97;;;7.50;;
3523;SDS011;1776;53.330;11.498;2023-11-19T00:04:08;9.03;;;6.90;;
3523;SDS011;1776;53.330;11.498;2023-11-19T00:06:34;10.60;;;6.80;;
3523;SDS011;1776;53.330;11.498;2023-11-19T00:08:59;13.27;;;8.30;;
3523;SDS011;1776;53.330;11.498;2023-11-19T00:11:25;11.57;;;7.87;;
3523;SDS011;1776;53.330;11.498;2023-11-19T00:13:50;11.30;;;8.40;;
3523;SDS011;1776;53.330;11.498;2023-11-19T00:16:15;12.07;;;7.63;;
3523;SDS011;1776;53.330;11.498;2023-11-19T00:18:41;15.57;;;8.37;;
3523;SDS011;1776;53.330;11.498;2023-11-19T00:21:06;11.90;;;7.23;;
3523;SDS011;1776;53.330;11.498;2023-11-19T00:23:33;13.80;;;8.40;;
3523;SDS011;1776;53.330;11.498;2023-11-19T00:25:58;10.90;;;7.60;;
3523;SDS011;1776;53.330;11.498;2023-11-19T00:28:23;11.90;;;8.17;;
3523;SDS011;1776;53.330;11.498;2023-11-19T00:30:49;13.07;;;9.63;;
3523;SDS011;1776;53.330;11.498;2023-11-19T00:33:14;17.13;;;8.80;;
3523;SDS011;1776;53.330;11.498;2023-11-19T00:35:39;10.47;;;8.07;;
3523;SDS011;1776;53.330;11.498;2023-11-19T00:38:04;11.93;;;8.27;;
3523;SDS011;1776;53.330;11.498;2023-11-19T00:40:30;10.63;;;7.43;;
3523;SDS011;1776;53.330;11.498;2023-11-19T00:42:55;12.50;;;7.97;;
3523;SDS011;1776;53.330;11.498;2023-11-19T00:45:20;11.40;;;7.70;;
3523;SDS011;1776;53.330;11.498;2023-11-19T00:47:46;11.53;;;7.20;;
3523;SDS011;1776;53.330;11.498;2023-11-19T00:50:11;11.63;;;7.73;;
3523;SDS011;1776;53.330;11.498;2023-11-19T00:52:37;10.17;;;7.43;;
3523;SDS011;1776;53.330;11.498;2023-11-19T00:55:03;12.00;;;7.50;;
3523;SDS011;1776;53.330;11.498;2023-11-19T00:57:29;12.33;;;7.80;;
3523;SDS011;1776;53.330;11.498;2023-11-19T00:59:57;11.87;;;8.10;;
3523;SDS011;1776;53.330;11.498;2023-11-19T01:02:23;13.17;;;8.17;;
3523;SDS011;1776;53.330;11.498;2023-11-19T01:04:49;9.67;;;6.97;;
3523;SDS011;1776;53.330;11.498;2023-11-19T01:07:14;12.57;;;7.70;;
3523;SDS011;1776;53.330;11.498;2023-11-19T01:09:41;10.93;;;7.60;;
3523;SDS011;1776;53.330;11.498;2023-11-19T01:12:07;14.50;;;8.53;;
3523;SDS011;1776;53.330;11.498;2023-11-19T01:14:33;11.63;;;7.47;;
3523;SDS011;1776;53.330;11.498;2023-11-19T01:16:59;10.77;;;7.50;;
3523;SDS011;1776;53.330;11.498;2023-11-19T01:19:25;8.57;;;6.90;;
3523;SDS011;1776;53.330;11.498;2023-11-19T01:21:51;9.60;;;7.30;;
3523;SDS011;1776;53.330;11.498;2023-11-19T01:24:16;11.03;;;7.43;;
3523;SDS011;1776;53.330;11.498;2023-11-19T01:26:42;11.17;;;7.33;;
3523;SDS011;1776;53.330;11.498;2023-11-19T01:29:12;11.80;;;7.87;;
3523;SDS011;1776;53.330;11.498;2023-11-19T01:31:39;13.00;;;7.57;;
3523;SDS011;1776;53.330;11.498;2023-11-19T01:34:05;9.60;;;6.67;;
3523;SDS011;1776;53.330;11.498;2023-11-19T01:36:30;10.50;;;7.33;;
3523;SDS011;1776;53.330;11.498;2023-11-19T01:38:55;12.50;;;7.80;;
3523;SDS011;1776;53.330;11.498;2023-11-19T01:41:20;11.80;;;7.43;;
3523;SDS011;1776;53.330;11.498;2023-11-19T01:43:46;11.10;;;7.97;;
3523;SDS011;1776;53.330;11.498;2023-11-19T01:46:12;10.27;;;7.57;;
3523;SDS011;1776;53.330;11.498;2023-11-19T01:48:40;11.27;;;8.07;;
3523;SDS011;1776;53.330;11.498;2023-11-19T01:51:09;10.47;;;6.83;;
3523;SDS011;1776;53.330;11.498;2023-11-19T01:53:36;9.93;;;7.20;;
3523;SDS011;1776;53.330;11.498;2023-11-19T01:56:03;9.57;;;7.27;;
3523;SDS011;1776;53.330;11.498;2023-11-19T01:58:33;11.23;;;7.73;;
3523;SDS011;1776;53.330;11.498;2023-11-19T02:01:00;7.73;;;6.77;;
3523;SDS011;1776;53.330;11.498;2023-11-19T02:03:25;7.97;;;6.20;;
3523;SDS011;1776;53.330;11.498;2023-11-19T02:05:54;9.53;;;6.20;;
3523;SDS011;1776;53.330;11.498;2023-11-19T02:08:19;10.70;;;6.47;;
3523;SDS011;1776;53.330;11.498;2023-11-19T02:10:45;8.13;;;6.70;;
3523;SDS011;1776;53.330;11.498;2023-11-19T02:13:10;9.83;;;6.70;;
3523;SDS011;1776;53.330;11.498;2023-11-19T02:15:38;9.37;;;6.30;;
3523;SDS011;1776;53.330;11.498;2023-11-19T02:18:25;7.97;;;6.20;;
3523;SDS011;1776;53.330;11.498;2023-11-19T02:20:52;10.00;;;6.40;;
3523;SDS011;1776;53.330;11.498;2023-11-19T02:23:19;8.53;;;6.40;;
3523;SDS011;1776;53.330;11.498;2023-11-19T02:25:47;10.93;;;7.30;;
3523;SDS011;1776;53.330;11.498;2023-11-19T02:28:16;9.57;;;6.63;;
3523;SDS011;1776;53.330;11.498;2023-11-19T02:30:43;8.97;;;6.30;;
3523;SDS011;1776;53.330;11.498;2023-11-19T02:33:08;9.00;;;5.97;;
3523;SDS011;1776;53.330;11.498;2023-11-19T02:35:33;8.60;;;6.37;;
3523;SDS011;1776;53.330;11.498;2023-11-19T02:37:59;7.33;;;6.00;;
3523;SDS011;1776;53.330;11.498;2023-11-19T02:40:25;7.10;;;5.20;;
3523;SDS011;1776;53.330;11.498;2023-11-19T02:42:51;6.70;;;5.87;;
3523;SDS011;1776;53.330;11.498;2023-11-19T02:45:17;6.20;;;4.50;;
3523;SDS011;1776;53.330;11.498;2023-11-19T02:47:43;5.50;;;4.57;;
3523;SDS011;1776;53.330;11.498;2023-11-19T02:50:09;6.80;;;4.63;;
3523;SDS011;1776;53.330;11.498;2023-11-19T02:52:44;6.00;;;5.00;;
3523;SDS011;1776;53.330;11.498;2023-11-19T02:55:11;6.70;;;3.83;;
3523;SDS011;1776;53.330;11.498;2023-11-19T02:57:40;4.90;;;4.13;;
3523;SDS011;1776;53.330;11.498;2023-11-19T03:00:12;5.83;;;4.30;;
3523;SDS011;1776;53.330;11.498;2023-11-19T03:02:39;6.70;;;4.20;;
3523;SDS011;1776;53.330;11.498;2023-11-19T03:05:10;6.63;;;4.17;;
3523;SDS011;1776;53.330;11.498;2023-11-19T03:07:36;5.40;;;3.83;;
3523;SDS011;1776;53.330;11.498;2023-11-19T03:10:02;4.97;;;4.10;;
3523;SDS011;1776;53.330;11.498;2023-11-19T03:12:30;3.70;;;3.30;;
3523;SDS011;1776;53.330;11.498;2023-11-19T03:14:55;4.80;;;3.60;;
3523;SDS011;1776;53.330;11.498;2023-11-19T03:17:20;3.33;;;2.63;;
3523;SDS011;1776;53.330;11.498;2023-11-19T03:19:46;4.87;;;3.77;;
3523;SDS011;1776;53.330;11.498;2023-11-19T03:22:11;4.23;;;3.83;;
3523;SDS011;1776;53.330;11.498;2023-11-19T03:24:36;4.17;;;3.23;;
3523;SDS011;1776;53.330;11.498;2023-11-19T03:27:01;3.53;;;3.13;;
3523;SDS011;1776;53.330;11.498;2023-11-19T03:29:28;3.97;;;2.87;;
3523;SDS011;1776;53.330;11.498;2023-11-19T03:31:53;3.87;;;3.10;;
3523;SDS011;1776;53.330;11.498;2023-11-19T03:34:19;4.07;;;3.67;;
3523;SDS011;1776;53.330;11.498;2023-11-19T03:36:44;3.43;;;3.03;;
3523;SDS011;1776;53.330;11.498;2023-11-19T03:39:10;2.60;;;2.40;;
3523;SDS011;1776;53.330;11.498;2023-11-19T03:41:35;3.20;;;2.90;;
3523;SDS011;1776;53.330;11.498;2023-11-19T03:44:01;3.70;;;3.40;;
3523;SDS011;1776;53.330;11.498;2023-11-19T03:46:26;3.33;;;2.70;;
3523;SDS011;1776;53.330;11.498;2023-11-19T03:48:52;2.73;;;2.53;;
3523;SDS011;1776;53.330;11.498;2023-11-19T03:51:17;2.80;;;2.60;;
3523;SDS011;1776;53.330;11.498;2023-11-19T03:53:43;4.03;;;2.80;;
3523;SDS011;1776;53.330;11.498;2023-11-19T03:56:09;4.63;;;2.73;;
3523;SDS011;1776;53.330;11.498;2023-11-19T03:58:35;2.70;;;2.40;;
3523;SDS011;1776;53.330;11.498;2023-11-19T04:01:00;3.20;;;2.27;;
3523;SDS011;1776;53.330;11.498;2023-11-19T04:03:26;2.27;;;2.07;;
3523;SDS011;1776;53.330;11.498;2023-11-19T04:05:53;4.03;;;3.20;;
3523;SDS011;1776;53.330;11.498;2023-11-19T04:08:18;2.30;;;2.10;;
3523;SDS011;1776;53.330;11.498;2023-11-19T04:10:43;2.10;;;1.87;;
3523;SDS011;1776;53.330;11.498;2023-11-19T04:13:08;2.80;;;2.50;;
3523;SDS011;1776;53.330;11.498;2023-11-19T04:15:34;2.90;;;2.40;;
3523;SDS011;1776;53.330;11.498;2023-11-19T04:17:59;1.90;;;1.80;;
3523;SDS011;1776;53.330;11.498;2023-11-19T04:20:24;2.30;;;2.00;;
3523;SDS011;1776;53.330;11.498;2023-11-19T04:22:50;2.80;;;2.13;;
3523;SDS011;1776;53.330;11.498;2023-11-19T04:25:16;3.03;;;2.53;;
3523;SDS011;1776;53.330;11.498;2023-11-19T04:27:41;2.70;;;2.50;;
3523;SDS011;1776;53.330;11.498;2023-11-19T04:30:07;2.53;;;2.33;;
3523;SDS011;1776;53.330;11.498;2023-11-19T04:32:35;2.53;;;2.33;;
3523;SDS011;1776;53.330;11.498;2023-11-19T04:35:01;2.90;;;2.60;;
3523;SDS011;1776;53.330;11.498;2023-11-19T04:37:26;2.90;;;2.60;;
3523;SDS011;1776;53.330;11.498;2023-11-19T04:39:51;4.40;;;2.40;;
3523;SDS011;1776;53.330;11.498;2023-11-19T04:42:16;2.00;;;1.83;;
3523;SDS011;1776;53.330;11.498;2023-11-19T04:44:42;4.50;;;2.27;;
3523;SDS011;1776;53.330;11.498;2023-11-19T04:47:08;2.70;;;2.47;;
3523;SDS011;1776;53.330;11.498;2023-11-19T04:49:33;2.13;;;2.03;;
3523;SDS011;1776;53.330;11.498;2023-11-19T04:51:58;3.77;;;2.50;;
3523;SDS011;1776;53.330;11.498;2023-11-19T04:54:24;3.07;;;2.77;;
3523;SDS011;1776;53.330;11.498;2023-11-19T04:56:49;2.67;;;2.30;;
3523;SDS011;1776;53.330;11.498;2023-11-19T04:59:14;2.67;;;2.40;;
3523;SDS011;1776;53.330;11.498;2023-11-19T05:01:40;2.10;;;1.90;;
3523;SDS011;1776;53.330;11.498;2023-11-19T05:04:06;4.20;;;2.03;;
3523;SDS011;1776;53.330;11.498;2023-11-19T05:06:32;2.77;;;2.20;;
3523;SDS011;1776;53.330;11.498;2023-11-19T05:08:59;2.40;;;2.07;;
3523;SDS011;1776;53.330;11.498;2023-11-19T05:11:34;2.17;;;2.07;;
3523;SDS011;1776;53.330;11.498;2023-11-19T05:13:59;3.20;;;2.40;;
3523;SDS011;1776;53.330;11.498;2023-11-19T05:16:25;3.50;;;2.60;;
3523;SDS011;1776;53.330;11.498;2023-11-19T05:18:51;3.20;;;2.40;;
3523;SDS011;1776;53.330;11.498;2023-11-19T05:21:16;2.63;;;2.20;;
3523;SDS011;1776;53.330;11.498;2023-11-19T05:23:42;2.67;;;2.10;;
3523;SDS011;1776;53.330;11.498;2023-11-19T05:26:08;2.27;;;2.07;;
3523;SDS011;1776;53.330;11.498;2023-11-19T05:28:35;6.30;;;2.20;;
3523;SDS011;1776;53.330;11.498;2023-11-19T05:31:02;2.13;;;1.90;;
3523;SDS011;1776;53.330;11.498;2023-11-19T05:33:27;2.20;;;2.00;;
3523;SDS011;1776;53.330;11.498;2023-11-19T05:35:53;2.73;;;2.27;;
3523;SDS011;1776;53.330;11.498;2023-11-19T05:38:18;2.07;;;1.90;;
3523;SDS011;1776;53.330;11.498;2023-11-19T05:40:43;2.17;;;1.73;;
3523;SDS011;1776;53.330;11.498;2023-11-19T05:43:09;2.43;;;2.20;;
3523;SDS011;1776;53.330;11.498;2023-11-19T05:45:34;2.30;;;2.10;;
3523;SDS011;1776;53.330;11.498;2023-11-19T05:47:59;2.20;;;2.00;;
3523;SDS011;1776;53.330;11.498;2023-11-19T05:50:24;3.63;;;2.70;;
3523;SDS011;1776;53.330;11.498;2023-11-19T05:52:50;4.17;;;2.20;;
3523;SDS011;1776;53.330;11.498;2023-11-19T05:55:15;2.57;;;2.37;;
3523;SDS011;1776;53.330;11.498;2023-11-19T05:57:41;2.70;;;2.33;;
3523;SDS011;1776;53.330;11.498;2023-11-19T06:00:06;2.70;;;2.50;;
3523;SDS011;1776;53.330;11.498;2023-11-19T06:02:33;3.10;;;2.77;;
3523;SDS011;1776;53.330;11.498;2023-11-19T06:04:59;2.50;;;2.30;;
3523;SDS011;1776;53.330;11.498;2023-11-19T06:07:25;2.70;;;2.50;;
3523;SDS011;1776;53.330;11.498;2023-11-19T06:09:50;3.90;;;3.37;;
3523;SDS011;1776;53.330;11.498;2023-11-19T06:12:15;5.97;;;3.60;;
3523;SDS011;1776;53.330;11.498;2023-11-19T06:14:41;3.53;;;3.20;;
3523;SDS011;1776;53.330;11.498;2023-11-19T06:17:06;5.50;;;4.60;;
3523;SDS011;1776;53.330;11.498;2023-11-19T06:19:31;6.47;;;4.83;;
3523;SDS011;1776;53.330;11.498;2023-11-19T06:21:56;5.33;;;4.83;;
3523;SDS011;1776;53.330;11.498;2023-11-19T06:24:22;5.73;;;5.13;;
3523;SDS011;1776;53.330;11.498;2023-11-19T06:26:47;5.17;;;4.53;;
3523;SDS011;1776;53.330;11.498;2023-11-19T06:29:13;5.50;;;5.00;;
3523;SDS011;1776;53.330;11.498;2023-11-19T06:31:43;7.33;;;4.80;;
3523;SDS011;1776;53.330;11.498;2023-11-19T06:34:08;8.30;;;5.20;;
3523;SDS011;1776;53.330;11.498;2023-11-19T06:36:34;9.60;;;6.00;;
3523;SDS011;1776;53.330;11.498;2023-11-19T06:39:00;8.50;;;6.03;;
3523;SDS011;1776;53.330;11.498;2023-11-19T06:41:25;8.47;;;6.60;;
3523;SDS011;1776;53.330;11.498;2023-11-19T06:43:50;7.37;;;6.00;;
3523;SDS011;1776;53.330;11.498;2023-11-19T06:46:17;10.47;;;6.93;;
3523;SDS011;1776;53.330;11.498;2023-11-19T06:48:42;7.17;;;6.33;;
3523;SDS011;1776;53.330;11.498;2023-11-19T06:51:09;11.60;;;6.30;;
3523;SDS011;1776;53.330;11.498;2023-11-19T06:53:34;8.50;;;7.07;;
3523;SDS011;1776;53.330;11.498;2023-11-19T06:56:00;9.80;;;7.37;;
3523;SDS011;1776;53.330;11.498;2023-11-19T06:58:27;8.33;;;6.10;;
3523;SDS011;1776;53.330;11.498;2023-11-19T07:00:53;8.17;;;7.20;;
3523;SDS011;1776;53.330;11.498;2023-11-19T07:03:18;11.43;;;7.13;;
3523;SDS011;1776;53.330;11.498;2023-11-19T07:05:45;8.30;;;6.90;;
3523;SDS011;1776;53.330;11.498;2023-11-19T07:08:10;8.07;;;7.17;;
3523;SDS011;1776;53.330;11.498;2023-11-19T07:10:36;11.20;;;6.60;;
3523;SDS011;1776;53.330;11.498;2023-11-19T07:13:01;9.03;;;6.83;;
3523;SDS011;1776;53.330;11.498;2023-11-19T07:15:30;13.10;;;8.83;;
3523;SDS011;1776;53.330;11.498;2023-11-19T07:17:56;11.30;;;7.10;;
3523;SDS011;1776;53.330;11.498;2023-11-19T07:20:23;13.00;;;8.83;;
3523;SDS011;1776;53.330;11.498;2023-11-19T07:22:48;13.50;;;8.43;;
3523;SDS011;1776;53.330;11.498;2023-11-19T07:25:13;22.43;;;9.73;;
3523;SDS011;1776;53.330;11.498;2023-11-19T07:27:39;21.63;;;12.93;;
3523;SDS011;1776;53.330;11.498;2023-11-19T07:30:06;13.27;;;9.07;;
3523;SDS011;1776;53.330;11.498;2023-11-19T07:32:34;18.13;;;10.10;;
3523;SDS011;1776;53.330;11.498;2023-11-19T07:34:59;13.57;;;8.73;;
3523;SDS011;1776;53.330;11.498;2023-11-19T07:37:25;16.80;;;9.20;;
3523;SDS011;1776;53.330;11.498;2023-11-19T07:39:50;14.67;;;9.50;;
3523;SDS011;1776;53.330;11.498;2023-11-19T07:42:16;15.47;;;9.70;;
3523;SDS011;1776;53.330;11.498;2023-11-19T07:44:41;12.60;;;8.37;;
3523;SDS011;1776;53.330;11.498;2023-11-19T07:47:06;15.10;;;8.93;;
3523;SDS011;1776;53.330;11.498;2023-11-19T07:49:32;19.93;;;10.43;;
3523;SDS011;1776;53.330;11.498;2023-11-19T07:51:57;18.90;;;9.77;;
3523;SDS011;1776;53.330;11.498;2023-11-19T07:54:23;15.20;;;8.97;;
3523;SDS011;1776;53.330;11.498;2023-11-19T07:56:49;20.47;;;9.70;;
3523;SDS011;1776;53.330;11.498;2023-11-19T07:59:15;22.53;;;9.87;;
3523;SDS011;1776;53.330;11.498;2023-11-19T08:01:40;12.67;;;9.20;;
3523;SDS011;1776;53.330;11.498;2023-11-19T08:04:05;14.13;;;9.07;;
3523;SDS011;1776;53.330;11.498;2023-11-19T08:06:31;15.33;;;8.90;;
3523;SDS011;1776;53.330;11.498;2023-11-19T08:08:56;19.37;;;9.47;;
3523;SDS011;1776;53.330;11.498;2023-11-19T08:11:21;12.50;;;8.67;;
3523;SDS011;1776;53.330;11.498;2023-11-19T08:13:47;21.63;;;9.77;;
3523;SDS011;1776;53.330;11.498;2023-11-19T08:16:12;14.77;;;9.23;;
3523;SDS011;1776;53.330;11.498;2023-11-19T08:18:40;11.83;;;8.43;;
3523;SDS011;1776;53.330;11.498;2023-11-19T08:21:08;15.43;;;9.77;;
3523;SDS011;1776;53.330;11.498;2023-11-19T08:23:33;21.53;;;9.77;;
3523;SDS011;1776;53.330;11.498;2023-11-19T08:25:59;16.23;;;9.60;;
3523;SDS011;1776;53.330;11.498;2023-11-19T08:28:24;12.10;;;8.10;;
3523;SDS011;1776;53.330;11.498;2023-11-19T08:30:50;13.43;;;8.93;;
3523;SDS011;1776;53.330;11.498;2023-11-19T08:33:15;11.53;;;8.47;;
3523;SDS011;1776;53.330;11.498;2023-11-19T08:35:41;18.93;;;9.50;;
3523;SDS011;1776;53.330;11.498;2023-11-19T08:38:06;16.70;;;8.97;;
3523;SDS011;1776;53.330;11.498;2023-11-19T08:40:32;14.13;;;9.90;;
3523;SDS011;1776;53.330;11.498;2023-11-19T08:42:57;16.70;;;10.50;;
3523;SDS011;1776;53.330;11.498;2023-11-19T08:45:22;17.43;;;9.83;;
3523;SDS011;1776;53.330;11.498;2023-11-19T08:47:47;15.10;;;9.00;;
3523;SDS011;1776;53.330;11.498;2023-11-19T08:50:13;15.50;;;8.93;;
3523;SDS011;1776;53.330;11.498;2023-11-19T08:52:38;16.13;;;8.43;;
3523;SDS011;1776;53.330;11.498;2023-11-19T08:55:04;13.67;;;9.97;;
3523;SDS011;1776;53.330;11.498;2023-11-19T08:57:30;20.23;;;9.97;;
3523;SDS011;1776;53.330;11.498;2023-11-19T08:59:56;25.53;;;10.57;;
3523;SDS011;1776;53.330;11.498;2023-11-19T09:02:21;17.80;;;9.40;;
3523;SDS011;1776;53.330;11.498;2023-11-19T09:04:46;19.13;;;9.77;;
3523;SDS011;1776;53.330;11.498;2023-11-19T09:07:12;14.40;;;10.33;;
3523;SDS011;1776;53.330;11.498;2023-11-19T09:09:37;15.73;;;10.73;;
3523;SDS011;1776;53.330;11.498;2023-11-19T09:12:03;18.13;;;10.43;;
3523;SDS011;1776;53.330;11.498;2023-11-19T09:14:29;12.60;;;7.60;;
3523;SDS011;1776;53.330;11.498;2023-11-19T09:16:55;10.73;;;6.70;;
3523;SDS011;1776;53.330;11.498;2023-11-19T09:19:21;14.23;;;9.40;;
3523;SDS011;1776;53.330;11.498;2023-11-19T09:21:46;17.37;;;8.43;;
3523;SDS011;1776;53.330;11.498;2023-11-19T09:24:13;13.17;;;8.03;;
3523;SDS011;1776;53.330;11.498;2023-11-19T09:26:38;16.97;;;10.17;;
3523;SDS011;1776;53.330;11.498;2023-11-19T09:29:06;15.60;;;8.30;;
3523;SDS011;1776;53.330;11.498;2023-11-19T09:31:32;14.60;;;8.83;;
3523;SDS011;1776;53.330;11.498;2023-11-19T09:33:57;19.47;;;8.40;;
3523;SDS011;1776;53.330;11.498;2023-11-19T09:36:23;19.40;;;8.47;;
3523;SDS011;1776;53.330;11.498;2023-11-19T09:38:48;15.93;;;8.97;;
3523;SDS011;1776;53.330;11.498;2023-11-19T09:41:13;16.37;;;9.37;;
3523;SDS011;1776;53.330;11.498;2023-11-19T09:43:39;18.63;;;9.30;;
3523;SDS011;1776;53.330;11.498;2023-11-19T09:46:05;16.57;;;7.90;;
3523;SDS011;1776;53.330;11.498;2023-11-19T09:48:32;17.47;;;7.90;;
3523;SDS011;1776;53.330;11.498;2023-11-19T09:50:59;18.73;;;7.70;;
3523;SDS011;1776;53.330;11.498;2023-11-19T09:53:25;16.83;;;7.67;;
3523;SDS011;1776;53.330;11.498;2023-11-19T09:55:51;18.23;;;7.93;;
3523;SDS011;1776;53.330;11.498;2023-11-19T09:58:18;15.07;;;6.87;;
3523;SDS011;1776;53.330;11.498;2023-11-19T10:00:43;25.37;;;6.37;;
3523;SDS011;1776;53.330;11.498;2023-11-19T10:03:09;19.63;;;7.13;;
3523;SDS011;1776;53.330;11.498;2023-11-19T10:05:38;26.50;;;7.00;;
3523;SDS011;1776;53.330;11.498;2023-11-19T10:08:04;21.43;;;8.00;;
3523;SDS011;1776;53.330;11.498;2023-11-19T10:10:29;21.00;;;7.17;;
3523;SDS011;1776;53.330;11.498;2023-11-19T10:12:55;16.93;;;6.27;;
3523;SDS011;1776;53.330;11.498;2023-11-19T10:15:21;23.70;;;7.43;;
3523;SDS011;1776;53.330;11.498;2023-11-19T10:17:49;28.43;;;7.40;;
3523;SDS011;1776;53.330;11.498;2023-11-19T10:20:14;17.57;;;6.93;;
3523;SDS011;1776;53.330;11.498;2023-11-19T10:22:39;38.17;;;7.47;;
3523;SDS011;1776;53.330;11.498;2023-11-19T10:25:05;17.97;;;5.77;;
3523;SDS011;1776;53.330;11.498;2023-11-19T10:27:48;23.93;;;7.63;;
3523;SDS011;1776;53.330;11.498;2023-11-19T10:30:48;21.13;;;6.03;;
3523;SDS011;1776;53.330;11.498;2023-11-19T10:33:07;11.40;;;5.17;;
3523;SDS011;1776;53.330;11.498;2023-11-19T10:35:34;21.70;;;5.00;;
3523;SDS011;1776;53.330;11.498;2023-11-19T10:38:13;20.53;;;5.60;;
3523;SDS011;1776;53.330;11.498;2023-11-19T10:40:42;39.97;;;6.67;;
3523;SDS011;1776;53.330;11.498;2023-11-19T10:43:08;16.90;;;5.33;;
3523;SDS011;1776;53.330;11.498;2023-11-19T10:45:34;32.30;;;5.87;;
3523;SDS011;1776;53.330;11.498;2023-11-19T10:48:01;18.33;;;5.57;;
3523;SDS011;1776;53.330;11.498;2023-11-19T10:50:31;13.97;;;5.80;;
3523;SDS011;1776;53.330;11.498;2023-11-19T10:52:57;33.43;;;6.00;;
3523;SDS011;1776;53.330;11.498;2023-11-19T10:55:29;22.00;;;6.17;;
3523;SDS011;1776;53.330;11.498;2023-11-19T10:57:59;17.40;;;4.90;;
3523;SDS011;1776;53.330;11.498;2023-11-19T11:00:26;27.33;;;5.60;;
3523;SDS011;1776;53.330;11.498;2023-11-19T11:02:56;23.00;;;5.50;;
3523;SDS011;1776;53.330;11.498;2023-11-19T11:05:26;23.37;;;7.23;;
3523;SDS011;1776;53.330;11.498;2023-11-19T11:07:52;27.67;;;5.50;;
3523;SDS011;1776;53.330;11.498;2023-11-19T11:10:20;25.10;;;5.22;;
3523;SDS011;1776;53.330;11.498;2023-11-19T11:12:48;23.67;;;6.17;;
3523;SDS011;1776;53.330;11.498;2023-11-19T11:15:15;24.43;;;6.97;;
3523;SDS011;1776;53.330;11.498;2023-11-19T11:17:43;24.50;;;5.63;;
3523;SDS011;1776;53.330;11.498;2023-11-19T11:20:10;25.83;;;6.13;;
3523;SDS011;1776;53.330;11.498;2023-11-19T11:22:41;37.03;;;6.17;;
3523;SDS011;1776;53.330;11.498;2023-11-19T11:25:23;13.93;;;4.47;;
3523;SDS011;1776;53.330;11.498;2023-11-19T11:28:24;20.57;;;7.03;;
3523;SDS011;1776;53.330;11.498;2023-11-19T11:36:48;28.63;;;5.83;;
3523;SDS011;1776;53.330;11.498;2023-11-19T11:39:22;29.30;;;6.10;;
3523;SDS011;1776;53.330;11.498;2023-11-19T11:42:18;19.87;;;5.60;;
3523;SDS011;1776;53.330;11.498;2023-11-19T11:50:07;21.93;;;5.70;;
3523;SDS011;1776;53.330;11.498;2023-11-19T11:52:33;32.80;;;5.50;;
3523;SDS011;1776;53.330;11.498;2023-11-19T11:55:05;32.57;;;5.80;;
3523;SDS011;1776;53.330;11.498;2023-11-19T11:57:36;24.00;;;6.10;;
3523;SDS011;1776;53.330;11.498;2023-11-19T12:00:02;25.93;;;6.37;;
3523;SDS011;1776;53.330;11.498;2023-11-19T12:02:30;27.07;;;6.70;;
3523;SDS011;1776;53.330;11.498;2023-11-19T12:04:55;20.30;;;5.10;;
3523;SDS011;1776;53.330;11.498;2023-11-19T12:07:22;27.47;;;6.20;;
3523;SDS011;1776;53.330;11.498;2023-11-19T12:09:51;21.73;;;5.80;;
3523;SDS011;1776;53.330;11.498;2023-11-19T12:12:19;26.67;;;5.83;;
3523;SDS011;1776;53.330;11.498;2023-11-19T12:15:01;26.53;;;6.30;;
3523;SDS011;1776;53.330;11.498;2023-11-19T12:17:50;19.92;;;5.70;;
3523;SDS011;1776;53.330;11.498;2023-11-19T12:20:16;17.40;;;5.40;;
3523;SDS011;1776;53.330;11.498;2023-11-19T12:22:42;22.37;;;4.40;;
3523;SDS011;1776;53.330;11.498;2023-11-19T12:25:10;25.90;;;7.10;;
3523;SDS011;1776;53.330;11.498;2023-11-19T12:27:37;27.83;;;6.80;;
3523;SDS011;1776;53.330;11.498;2023-11-19T12:30:05;27.27;;;5.87;;
3523;SDS011;1776;53.330;11.498;2023-11-19T12:32:43;23.90;;;5.47;;
3523;SDS011;1776;53.330;11.498;2023-11-19T12:35:11;16.07;;;6.13;;
3523;SDS011;1776;53.330;11.498;2023-11-19T12:37:41;28.10;;;7.10;;
3523;SDS011;1776;53.330;11.498;2023-11-19T12:40:11;27.73;;;7.33;;
3523;SDS011;1776;53.330;11.498;2023-11-19T12:42:41;25.13;;;5.63;;
3523;SDS011;1776;53.330;11.498;2023-11-19T12:45:06;17.03;;;4.63;;
3523;SDS011;1776;53.330;11.498;2023-11-19T12:47:33;26.17;;;8.13;;
3523;SDS011;1776;53.330;11.498;2023-11-19T12:49:59;24.70;;;5.40;;
3523;SDS011;1776;53.330;11.498;2023-11-19T12:52:24;30.20;;;6.87;;
3523;SDS011;1776;53.330;11.498;2023-11-19T12:54:50;16.73;;;5.60;;
3523;SDS011;1776;53.330;11.498;2023-11-19T12:57:16;36.77;;;7.77;;
3523;SDS011;1776;53.330;11.498;2023-11-19T12:59:41;23.50;;;7.17;;
3523;SDS011;1776;53.330;11.498;2023-11-19T13:02:07;23.07;;;5.20;;
3523;SDS011;1776;53.330;11.498;2023-11-19T13:04:33;34.27;;;7.20;;
3523;SDS011;1776;53.330;11.498;2023-11-19T13:06:59;25.13;;;7.87;;
3523;SDS011;1776;53.330;11.498;2023-11-19T13:09:25;17.33;;;6.00;;
3523;SDS011;1776;53.330;11.498;2023-11-19T13:11:52;23.10;;;5.37;;
3523;SDS011;1776;53.330;11.498;2023-11-19T13:14:18;20.30;;;5.73;;
3523;SDS011;1776;53.330;11.498;2023-11-19T13:16:44;29.73;;;6.00;;
3523;SDS011;1776;53.330;11.498;2023-11-19T13:19:11;26.47;;;8.13;;
3523;SDS011;1776;53.330;11.498;2023-11-19T13:21:37;23.57;;;6.10;;
3523;SDS011;1776;53.330;11.498;2023-11-19T13:24:03;22.33;;;5.93;;
3523;SDS011;1776;53.330;11.498;2023-11-19T13:26:28;20.63;;;4.73;;
3523;SDS011;1776;53.330;11.498;2023-11-19T13:28:54;28.00;;;6.73;;
3523;SDS011;1776;53.330;11.498;2023-11-19T13:31:19;25.80;;;5.60;;
3523;SDS011;1776;53.330;11.498;2023-11-19T13:33:44;22.57;;;6.00;;
3523;SDS011;1776;53.330;11.498;2023-11-19T13:36:09;21.03;;;5.30;;
3523;SDS011;1776;53.330;11.498;2023-11-19T13:38:35;15.60;;;5.40;;
3523;SDS011;1776;53.330;11.498;2023-11-19T13:41:03;27.90;;;5.60;;
3523;SDS011;1776;53.330;11.498;2023-11-19T13:43:29;22.43;;;5.07;;
3523;SDS011;1776;53.330;11.498;2023-11-19T13:45:55;26.40;;;5.23;;
3523;SDS011;1776;53.330;11.498;2023-11-19T13:48:21;26.27;;;5.27;;
3523;SDS011;1776;53.330;11.498;2023-11-19T13:50:47;18.80;;;5.10;;
3523;SDS011;1776;53.330;11.498;2023-11-19T13:53:12;14.20;;;5.03;;
3523;SDS011;1776;53.330;11.498;2023-11-19T13:55:37;36.50;;;8.27;;
3523;SDS011;1776;53.330;11.498;2023-11-19T13:58:03;23.23;;;8.73;;
3523;SDS011;1776;53.330;11.498;2023-11-19T14:00:28;26.50;;;7.07;;
3523;SDS011;1776;53.330;11.498;2023-11-19T14:02:54;23.67;;;7.60;;
3523;SDS011;1776;53.330;11.498;2023-11-19T14:05:19;22.77;;;5.57;;
3523;SDS011;1776;53.330;11.498;2023-11-19T14:07:45;20.67;;;5.03;;
3523;SDS011;1776;53.330;11.498;2023-11-19T14:10:13;18.70;;;5.80;;
3523;SDS011;1776;53.330;11.498;2023-11-19T14:12:39;18.63;;;4.90;;
3523;SDS011;1776;53.330;11.498;2023-11-19T14:15:06;24.97;;;4.63;;
3523;SDS011;1776;53.330;11.498;2023-11-19T14:17:33;17.43;;;4.90;;
3523;SDS011;1776;53.330;11.498;2023-11-19T14:19:59;19.07;;;3.93;;
3523;SDS011;1776;53.330;11.498;2023-11-19T14:22:24;13.30;;;5.10;;
3523;SDS011;1776;53.330;11.498;2023-11-19T14:24:50;20.30;;;5.00;;
3523;SDS011;1776;53.330;11.498;2023-11-19T14:27:15;21.47;;;6.07;;
3523;SDS011;1776;53.330;11.498;2023-11-19T14:29:42;22.87;;;4.80;;
3523;SDS011;1776;53.330;11.498;2023-11-19T14:32:09;28.90;;;7.83;;
3523;SDS011;1776;53.330;11.498;2023-11-19T14:34:34;10.37;;;4.03;;
3523;SDS011;1776;53.330;11.498;2023-11-19T14:37:00;26.30;;;11.70;;
3523;SDS011;1776;53.330;11.498;2023-11-19T14:39:25;34.07;;;19.80;;
3523;SDS011;1776;53.330;11.498;2023-11-19T14:41:51;18.50;;;5.60;;
3523;SDS011;1776;53.330;11.498;2023-11-19T14:44:17;15.90;;;4.87;;
3523;SDS011;1776;53.330;11.498;2023-11-19T14:46:44;16.93;;;5.00;;
3523;SDS011;1776;53.330;11.498;2023-11-19T14:49:10;23.07;;;4.37;;
3523;SDS011;1776;53.330;11.498;2023-11-19T14:51:35;24.23;;;6.40;;
3523;SDS011;1776;53.330;11.498;2023-11-19T14:54:02;22.33;;;5.37;;
3523;SDS011;1776;53.330;11.498;2023-11-19T14:56:28;22.30;;;5.50;;
3523;SDS011;1776;53.330;11.498;2023-11-19T14:58:53;22.73;;;4.97;;
3523;SDS011;1776;53.330;11.498;2023-11-19T15:01:19;16.67;;;5.07;;